Currently 62°F in Simi Valley, California, USA
62°F
68°F / 45°F
calm
0.00"
Monday, January 22, 2018 5:42 PM PST

Simi Valley, California Climate Summary
Typical January Day

Normal High:    67.5°F (19.7°C)
Normal Low:    48.8°F (9.3°C)
Average:    57.7°F (14.3°C)

Hour    Temperature    Wind Speed    Humidity
12:00 AM    54°F (12°C)    4 mph    57%
1:00 AM    53°F (12°C)    4 mph    57%
2:00 AM    53°F (12°C)    5 mph    57%
3:00 AM    53°F (12°C)    4 mph    58%
4:00 AM    52°F (11°C)    5 mph    58%
5:00 AM    52°F (11°C)    5 mph    59%
6:00 AM    52°F (11°C)    5 mph    59%
7:00 AM    52°F (11°C)    5 mph    59%
8:00 AM    53°F (11°C)    5 mph    59%
9:00 AM    57°F (14°C)    5 mph    55%
10:00 AM    60°F (16°C)    5 mph    50%
11:00 AM    63°F (17°C)    6 mph    46%
12:00 PM    65°F (18°C)    6 mph    43%
1:00 PM    66°F (19°C)    6 mph    41%
2:00 PM    67°F (19°C)    6 mph    41%
3:00 PM    66°F (19°C)    6 mph    42%
4:00 PM    65°F (18°C)    5 mph    45%
5:00 PM    62°F (17°C)    5 mph    48%
6:00 PM    60°F (15°C)    4 mph    52%
7:00 PM    58°F (14°C)    4 mph    54%
8:00 PM    57°F (14°C)    4 mph    54%
9:00 PM    56°F (13°C)    4 mph    55%
10:00 PM    55°F (13°C)    5 mph    56%
11:00 PM    55°F (13°C)    4 mph    56%
 

The Simi Valley, California weather pages are a service of WeatherCurrents.
Copyright ©Mon Jan 22 17:43:42 PST 2018  WeatherCurrents. All rights reserved. - Submit questions and comments - Privacy Policy